SPZO Airport Information

Runway Information
Runway 10 Length 11146 ft width 148 ft
Elevation 10860 ft Threshold 0 ft Heading 96
Runway 28 Length 11146 ft Width 148 ft
Elevation 10702 ft Threshold 0 ft Heading 276
Airport Frequencies
Type APP Name CUSCO APP Frequency 120.6 MHZ
Type ATIS Name ATIS Frequency 127 MHZ
Type GND Name GND Frequency 121.9 MHZ
Type TWR Name CUSCO TWR Frequency 118.1 MHZ
Airport Navaids
Type VOR-DME Name Urcos Frequency 115600 KHZ
Type VOR-DME Name Cusco Frequency 114900 KHZ
Airport Weather Information & NOTAM
ADDS - METARS form results

(2232 UTC 20 June 2018)
 
METAR text: SPZO 202230Z 30008KT 9999 FEW050 16/M04 Q1031 NOSIG RMK BIRD HAZARD RWY 28
Conditions at: SPZO (CUZCO/VELAZCO AS, PE) observed 2230 UTC 20 June 2018
Temperature: 16.0°C (61°F)
Dewpoint: -4.0°C (25°F) [RH = 25%]
Pressure (altimeter): 30.44 inches Hg (1031.0 mb)
Winds: from the WNW (300 degrees) at 9 MPH (8 knots; 4.2 m/s)
Visibility: 6 or more miles (10+ km)
Ceiling: at least 12,000 feet AGL
Clouds: few clouds at 5000 feet AGL
Weather: no significant weather observed at this time

METAR text: SPZO 202200Z 30011KT 270V340 9999 FEW050 17/M05 Q1030 NOSIG RMK TX 19.7 BIRD HAZARD RWY 28 PP000
Conditions at: SPZO (CUZCO/VELAZCO AS, PE) observed 2200 UTC 20 June 2018
Temperature: 17.0°C (63°F)
Dewpoint: -5.0°C (23°F) [RH = 22%]
Pressure (altimeter): 30.41 inches Hg (1030.0 mb)
Winds: from the WNW (300 degrees) at 13 MPH (11 knots; 5.7 m/s)
Visibility: 6 or more miles (10+ km)
Ceiling: at least 12,000 feet AGL
Clouds: few clouds at 5000 feet AGL
Weather: no significant weather observed at this time